createdAt,value
2022-10-30T00:02:57.042Z,6.10
2022-10-30T00:07:59.721Z,5.47
2022-10-30T00:13:01.658Z,8.63
2022-10-30T00:18:03.537Z,10.40
2022-10-30T00:23:05.605Z,6.88
2022-10-30T00:28:07.745Z,6.80
2022-10-30T00:33:09.482Z,5.50
2022-10-30T00:38:11.153Z,7.40
2022-10-30T00:43:31.336Z,8.40
2022-10-30T00:48:33.648Z,7.35
2022-10-30T00:53:35.681Z,6.18
2022-10-30T00:58:43.197Z,7.90
2022-10-30T01:03:46.564Z,7.55
2022-10-30T01:08:48.950Z,7.43
2022-10-30T01:13:53.768Z,4.93
2022-10-30T01:19:09.529Z,7.30
2022-10-30T01:24:42.886Z,5.70
2022-10-30T01:29:59.378Z,6.13
2022-10-30T01:35:42.473Z,7.85
2022-10-30T01:40:44.987Z,5.07
2022-10-30T01:46:31.449Z,6.53
2022-10-30T01:51:56.093Z,8.50
2022-10-30T01:57:18.181Z,6.85
2022-10-30T02:02:20.241Z,5.70
2022-10-30T02:07:22.631Z,6.50
2022-10-30T02:12:24.933Z,4.93
2022-10-30T02:17:27.904Z,5.03
2022-10-30T02:22:29.625Z,8.25
2022-10-30T02:27:31.321Z,7.47
2022-10-30T02:32:32.998Z,6.13
2022-10-30T02:37:34.891Z,6.57
2022-10-30T02:42:36.612Z,5.65
2022-10-30T02:47:38.343Z,5.72
2022-10-30T02:52:40.124Z,4.80
2022-10-30T02:57:41.811Z,6.80
2022-10-30T03:02:43.524Z,4.03
2022-10-30T03:07:45.226Z,6.07
2022-10-30T03:12:46.916Z,4.35
2022-10-30T03:17:48.555Z,4.82
2022-10-30T03:22:50.202Z,6.22
2022-10-30T03:27:52.731Z,6.85
2022-10-30T03:32:54.376Z,6.30
2022-10-30T03:37:56.029Z,7.32
2022-10-30T03:42:57.796Z,5.72
2022-10-30T03:48:03.233Z,4.63
2022-10-30T03:53:04.927Z,7.80
2022-10-30T03:58:07.439Z,6.78
2022-10-30T04:03:10.047Z,9.40
2022-10-30T04:08:13.839Z,7.10
2022-10-30T04:13:17.882Z,7.00
2022-10-30T04:18:19.625Z,6.35
2022-10-30T04:23:22.345Z,8.25
2022-10-30T04:28:24.012Z,6.85
2022-10-30T04:33:25.744Z,7.03
2022-10-30T04:38:27.476Z,7.45
2022-10-30T04:43:29.181Z,10.13
2022-10-30T04:48:30.827Z,5.57
2022-10-30T04:53:32.507Z,5.43
2022-10-30T04:58:34.296Z,8.07
2022-10-30T05:03:36.021Z,7.53
2022-10-30T05:08:37.711Z,8.23
2022-10-30T05:13:39.377Z,8.57
2022-10-30T05:18:41.082Z,6.97
2022-10-30T05:23:42.758Z,6.45
2022-10-30T05:28:44.463Z,6.97
2022-10-30T05:33:46.111Z,7.13
2022-10-30T05:38:48.102Z,6.25
2022-10-30T05:43:49.761Z,9.63
2022-10-30T05:48:51.429Z,9.75
2022-10-30T05:53:53.122Z,7.38
2022-10-30T05:58:54.797Z,7.70
2022-10-30T06:03:57.525Z,9.13
2022-10-30T06:08:59.215Z,4.75
2022-10-30T06:14:00.922Z,4.18
2022-10-30T06:19:02.587Z,5.80
2022-10-30T06:24:04.624Z,5.85
2022-10-30T06:29:06.729Z,6.63
2022-10-30T06:34:08.391Z,4.75
2022-10-30T06:39:10.038Z,6.25
2022-10-30T06:44:11.727Z,7.82
2022-10-30T06:49:13.454Z,5.28
2022-10-30T06:54:15.103Z,8.10
2022-10-30T06:59:16.760Z,4.10
2022-10-30T07:04:18.541Z,5.75
2022-10-30T07:09:20.375Z,4.75
2022-10-30T07:14:22.064Z,5.53
2022-10-30T07:19:23.872Z,5.30
2022-10-30T07:24:25.578Z,5.35
2022-10-30T07:29:27.452Z,6.13
2022-10-30T07:34:29.157Z,4.40
2022-10-30T07:39:30.847Z,7.00
2022-10-30T07:44:32.550Z,8.43
2022-10-30T07:49:34.237Z,8.50
2022-10-30T07:54:35.955Z,6.80
2022-10-30T07:59:37.687Z,6.57
2022-10-30T08:04:39.434Z,7.07
2022-10-30T08:09:41.124Z,8.13
2022-10-30T08:14:42.794Z,6.93
2022-10-30T08:19:44.522Z,4.95
2022-10-30T08:24:46.201Z,5.43
2022-10-30T08:29:47.877Z,4.18
2022-10-30T08:34:49.526Z,7.20
2022-10-30T08:39:51.202Z,7.25
2022-10-30T08:44:52.877Z,5.77
2022-10-30T08:49:54.553Z,5.70
2022-10-30T08:54:56.288Z,7.15
2022-10-30T08:59:57.999Z,4.97
2022-10-30T09:05:00.417Z,6.70
2022-10-30T09:10:02.439Z,4.45
2022-10-30T09:15:04.556Z,6.28
2022-10-30T09:20:06.473Z,8.20
2022-10-30T09:25:09.081Z,6.17
2022-10-30T09:30:12.025Z,6.03
2022-10-30T09:35:13.706Z,6.13
2022-10-30T09:40:22.299Z,4.20
2022-10-30T09:45:30.535Z,5.57
2022-10-30T09:50:49.613Z,9.20
2022-10-30T09:56:19.415Z,7.57
2022-10-30T10:01:53.247Z,5.83
2022-10-30T10:07:04.408Z,9.50
2022-10-30T10:12:29.650Z,4.72
2022-10-30T10:17:38.719Z,5.13
2022-10-30T10:22:43.340Z,5.10
2022-10-30T10:28:00.152Z,5.93
2022-10-30T10:33:17.725Z,8.48
2022-10-30T10:38:34.177Z,5.70
2022-10-30T10:43:53.503Z,6.20
2022-10-30T10:49:09.151Z,6.25
2022-10-30T10:54:28.163Z,6.83
2022-10-30T10:59:34.815Z,4.13
2022-10-30T11:04:45.441Z,7.10
2022-10-30T11:09:52.596Z,5.68
2022-10-30T11:14:54.242Z,7.22
2022-10-30T11:20:03.158Z,5.20
2022-10-30T11:25:25.323Z,7.50
2022-10-30T11:30:30.549Z,9.93
2022-10-30T11:35:42.282Z,5.97
2022-10-30T11:40:51.367Z,4.60
2022-10-30T11:45:54.031Z,8.48
2022-10-30T11:51:04.776Z,6.68
2022-10-30T11:56:23.505Z,6.37
2022-10-30T12:01:51.183Z,6.30
2022-10-30T12:07:08.566Z,8.02
2022-10-30T12:12:31.620Z,4.90
2022-10-30T12:17:33.414Z,5.50
2022-10-30T12:22:35.721Z,6.53
2022-10-30T12:27:37.691Z,7.10
2022-10-30T12:33:09.225Z,8.20
2022-10-30T12:38:36.963Z,6.60
2022-10-30T12:43:41.610Z,5.05
2022-10-30T12:49:01.856Z,6.67
2022-10-30T12:54:26.499Z,8.30
2022-10-30T13:00:02.253Z,8.47
2022-10-30T13:05:27.410Z,6.25
2022-10-30T13:10:42.779Z,7.17
2022-10-30T13:15:51.753Z,6.68
2022-10-30T13:21:01.698Z,4.80
2022-10-30T13:26:19.081Z,8.20
2022-10-30T13:31:26.227Z,7.95
2022-10-30T13:42:19.200Z,7.80
2022-10-30T13:47:27.433Z,3.97
2022-10-30T13:52:32.703Z,6.53
2022-10-30T13:57:45.622Z,5.88
2022-10-30T14:02:59.523Z,7.30
2022-10-30T14:08:22.702Z,10.45
2022-10-30T14:13:47.727Z,7.70
2022-10-30T14:18:59.824Z,26.52
2022-10-30T14:24:29.088Z,7.13
2022-10-30T14:29:33.935Z,13.33
2022-10-30T14:34:51.168Z,8.53
2022-10-30T14:39:54.350Z,8.48
2022-10-30T14:45:15.256Z,8.20
2022-10-30T14:50:41.799Z,8.68
2022-10-30T14:56:07.536Z,8.33
2022-10-30T15:01:09.293Z,9.40
2022-10-30T15:06:36.045Z,12.25
2022-10-30T15:12:01.961Z,10.63
2022-10-30T15:17:04.143Z,9.93
2022-10-30T15:22:05.852Z,8.82
2022-10-30T15:27:11.992Z,11.13
2022-10-30T15:32:18.171Z,10.38
2022-10-30T15:37:19.837Z,9.00
2022-10-30T15:42:21.865Z,11.98
2022-10-30T15:47:23.571Z,10.77
2022-10-30T15:52:30.653Z,10.10
2022-10-30T15:58:01.769Z,13.38
2022-10-30T16:03:04.619Z,10.07
2022-10-30T16:08:15.197Z,9.13
2022-10-30T16:13:19.470Z,9.50
2022-10-30T16:18:27.673Z,10.27
2022-10-30T16:23:30.534Z,16.65
2022-10-30T16:28:34.829Z,11.93
2022-10-30T16:33:37.251Z,11.27
2022-10-30T16:38:39.207Z,9.17
2022-10-30T16:43:43.330Z,11.95
2022-10-30T16:49:00.533Z,10.25
2022-10-30T16:54:02.261Z,12.60
2022-10-30T16:59:15.106Z,10.63
2022-10-30T17:04:16.988Z,10.85
2022-10-30T17:09:24.370Z,15.05
2022-10-30T17:14:26.162Z,12.07
2022-10-30T17:19:30.538Z,14.13
2022-10-30T17:24:36.845Z,10.63
2022-10-30T17:29:38.452Z,15.68
2022-10-30T17:34:40.158Z,10.07
2022-10-30T17:39:41.912Z,10.20
2022-10-30T17:44:43.930Z,13.73
2022-10-30T17:49:45.684Z,18.15
2022-10-30T17:54:47.351Z,18.20
2022-10-30T17:59:49.027Z,14.47
2022-10-30T18:04:51.123Z,13.52
2022-10-30T18:09:52.799Z,9.53
2022-10-30T18:14:54.456Z,10.82
2022-10-30T18:19:56.092Z,10.27
2022-10-30T18:25:00.284Z,12.25
2022-10-30T18:30:01.982Z,11.30
2022-10-30T18:35:19.698Z,13.35
2022-10-30T18:40:22.672Z,10.45
2022-10-30T18:45:27.580Z,12.05
2022-10-30T18:50:30.953Z,13.45
2022-10-30T18:55:35.501Z,13.03
2022-10-30T19:01:10.053Z,13.13
2022-10-30T19:06:01.201Z,12.63
2022-10-30T19:11:02.986Z,10.43
2022-10-30T19:16:14.147Z,12.18
2022-10-30T19:21:18.942Z,8.57
2022-10-30T19:26:20.946Z,9.97
2022-10-30T19:31:22.669Z,11.13
2022-10-30T19:36:29.172Z,12.80
2022-10-30T19:46:37.875Z,13.35
2022-10-30T19:51:39.608Z,12.13
2022-10-30T19:56:41.393Z,16.55
2022-10-30T20:01:43.430Z,13.13
2022-10-30T20:06:45.155Z,14.47
2022-10-30T20:11:46.919Z,16.50
2022-10-30T20:16:48.592Z,14.10
2022-10-30T20:21:50.279Z,11.52
2022-10-30T20:26:52.995Z,9.52
2022-10-30T20:31:54.729Z,9.70
2022-10-30T20:36:56.388Z,12.07
2022-10-30T20:41:58.139Z,12.83
2022-10-30T20:46:59.821Z,10.80
2022-10-30T20:52:01.583Z,8.65
2022-10-30T20:57:03.323Z,9.48
2022-10-30T21:02:05.347Z,10.50
2022-10-30T21:07:07.194Z,9.85
2022-10-30T21:12:08.888Z,11.88
2022-10-30T21:17:10.599Z,8.70
2022-10-30T21:22:12.307Z,12.90
2022-10-30T21:27:13.998Z,7.45
2022-10-30T21:32:15.843Z,10.68
2022-10-30T21:37:17.542Z,6.45
2022-10-30T21:42:19.316Z,14.93
2022-10-30T21:47:21.079Z,10.23
2022-10-30T21:52:22.794Z,9.47
2022-10-30T21:57:24.750Z,9.10
2022-10-30T22:02:26.450Z,13.50
2022-10-30T22:07:28.150Z,11.67
2022-10-30T22:12:29.861Z,9.70
2022-10-30T22:17:34.814Z,7.38
2022-10-30T22:22:36.887Z,4.90
2022-10-30T22:27:38.560Z,6.13
2022-10-30T22:32:40.643Z,7.13
2022-10-30T22:37:42.303Z,6.18
2022-10-30T22:42:43.985Z,7.80
2022-10-30T22:47:45.654Z,7.13
2022-10-30T22:52:47.348Z,7.57
2022-10-30T22:57:53.179Z,8.47
2022-10-30T23:02:55.116Z,7.47
2022-10-30T23:07:56.814Z,4.03
2022-10-30T23:12:58.808Z,6.87
2022-10-30T23:18:01.078Z,6.00
2022-10-30T23:23:04.621Z,5.27
2022-10-30T23:28:11.059Z,5.03
2022-10-30T23:33:12.919Z,5.07
2022-10-30T23:38:14.649Z,7.07
2022-10-30T23:43:16.669Z,5.73
2022-10-30T23:48:18.555Z,9.13
2022-10-30T23:53:20.238Z,10.98
2022-10-30T23:58:22.120Z,4.72
